Latest Weather Observations for Perisher Valley

IDN60901

Issued at 3:35 pm EST Thursday 18 September 2014 (issued every 10 minutes, with the page automatically refreshed every 10 minutes)

About weather observations | Map of Canberra area stations | Latest observations for Canberra area | Other Formats
Station Details ID: 071075 Name: PERISHER VALLEY AWS Lat: -36.41 Lon: 148.41 Height: 1738.0 m
Data from the previous 72 hours. | See also: Recent months at Perisher Valley
Date/Time
EST
Tmp

°C
App
Tmp
°C
Dew
Point
°C
Rel
Hum
%
Delta-T

°C
Wind Press
QNH
hPa
Press
MSL
hPa
Rain
since
9 am
mm
Dir
 
Spd
km/h
Gust
km/h
Spd
kts
Gust
kts
18/03:30pm 1.9 -2.0 -5.0 60 2.6 WSW 7 20 4 11 - - 0.0
18/03:00pm 2.0 -3.0 -4.7 61 2.6 WSW 13 26 7 14 - - 0.0
18/02:30pm 1.7 -3.0 -5.2 60 2.6 WSW 11 24 6 13 - - 0.0
18/02:00pm 1.6 -2.3 -4.7 63 2.4 SW 7 24 4 13 - - 0.0
18/01:30pm 1.3 -3.0 -5.0 63 2.4 WSW 9 26 5 14 - - 0.0
18/01:00pm 1.6 -2.6 -4.3 65 2.3 WSW 9 22 5 12 - - 0.0
18/12:30pm 0.7 -4.0 -5.1 65 2.1 WSW 11 24 6 13 - - 0.0
18/12:00pm 0.4 -4.6 -4.6 69 1.8 WSW 13 30 7 16 - - 0.0
18/11:30am 0.8 -3.0 -4.0 70 1.8 WSW 7 22 4 12 - - 0.0
18/11:00am -0.3 -5.0 -5.5 68 1.8 WSW 11 22 6 12 - - 0.0
18/10:30am 0.1 -3.6 -4.7 70 1.7 WSW 6 20 3 11 - - 0.0
18/10:00am -0.8 -5.6 -5.9 68 1.7 WSW 11 32 6 17 - - 0.0
18/09:30am -1.0 -5.8 -6.3 67 1.8 SW 11 20 6 11 - - 0.0
18/09:00am -1.0 -5.8 -5.6 71 1.6 WSW 11 20 6 11 - - 6.0
18/08:30am -2.2 -8.2 -6.4 73 1.3 WSW 17 43 9 23 - - 6.0
18/08:00am -2.3 -7.9 -5.9 76 1.1 WSW 15 37 8 20 - - 6.0
18/07:30am -2.8 -9.1 -5.6 81 0.8 WSW 19 39 10 21 - - 6.0
18/07:00am -3.1 -9.4 -5.9 81 0.8 WSW 19 39 10 21 - - 6.0
18/06:30am -3.4 -9.3 -6.0 82 0.7 WSW 17 39 9 21 - - 6.0
18/06:00am -3.8 -9.8 -6.9 79 0.8 WSW 17 33 9 18 - - 6.0
18/05:30am -3.5 -9.1 -6.4 80 0.8 WSW 15 39 8 21 - - 6.0
18/05:00am -3.5 -9.5 -6.8 78 0.9 WSW 17 33 9 18 - - 6.0
18/04:30am -3.6 -9.6 -6.7 79 0.9 WSW 17 30 9 16 - - 6.0
18/04:00am -3.5 -9.1 -6.4 80 0.8 W 15 26 8 14 - - 6.0
18/03:30am -3.3 -9.8 -6.4 79 0.9 W 20 35 11 19 - - 6.0
18/03:00am -3.3 -9.9 -6.7 77 1.0 W 20 37 11 20 - - 6.0
18/02:30am -3.4 -9.8 -7.0 76 1.0 W 19 35 10 19 - - 6.0
18/02:00am -3.1 -9.5 -7.2 73 1.2 W 19 32 10 17 - - 6.0
18/01:30am -2.4 -7.6 -5.7 78 1.0 WSW 13 30 7 16 - - 6.0
18/01:00am -2.1 -7.2 -5.6 77 1.1 WSW 13 28 7 15 - - 6.0
18/12:30am -2.0 -6.9 -3.6 89 0.5 WSW 13 30 7 16 - - 6.0
18/12:00am -1.9 -7.2 -3.2 91 0.4 WSW 15 37 8 20 - - 6.0
 
Date/Time
EST
Tmp

°C
App
Tmp
°C
Dew
Point
°C
Rel
Hum
%
Delta-T

°C
Wind Press
QNH
hPa
Press
MSL
hPa
Rain
since
9 am
mm
Dir
 
Spd
km/h
Gust
km/h
Spd
kts
Gust
kts
17/11:30pm -1.8 -7.1 -3.8 86 0.6 WSW 15 39 8 21 - - 6.0
17/11:00pm -1.9 -7.3 -4.1 85 0.7 W 15 33 8 18 - - 6.0
17/10:30pm -1.7 -8.0 -3.9 85 0.7 WSW 20 43 11 23 - - 6.0
17/10:00pm -1.6 -8.6 -3.2 89 0.5 W 24 50 13 27 - - 5.8
17/09:30pm -1.3 -6.9 -2.6 91 0.4 W 17 39 9 21 - - 5.4
17/09:00pm -1.2 -7.4 -3.2 86 0.7 W 20 46 11 25 - - 5.4
17/08:30pm -1.1 -7.3 -3.1 86 0.7 W 20 41 11 22 - - 5.4
17/08:04pm -0.9 -8.7 -3.6 82 1.0 W 28 50 15 27 - - 5.4
17/08:00pm -0.9 -7.9 -3.6 82 1.0 W 24 46 13 25 - - 5.4
17/07:30pm -0.8 -6.9 -2.5 88 0.6 W 20 37 11 20 - - 5.0
17/07:00pm -0.3 -7.8 -1.6 91 0.5 W 28 50 15 27 - - 4.4
17/06:30pm -0.5 -6.5 -1.9 90 0.5 W 20 48 11 26 - - 4.2
17/06:00pm -0.4 -6.3 -2.6 85 0.8 W 19 41 10 22 - - 4.2
17/05:30pm -0.3 -6.7 -1.7 90 0.5 WNW 22 46 12 25 - - 3.4
17/05:00pm -0.1 -8.7 -2.2 86 0.8 WNW 33 56 18 30 - - 3.4
17/04:49pm 0.1 -7.4 -1.2 91 0.5 WNW 28 54 15 29 - - 3.4
17/04:30pm 0.6 -6.3 -2.4 80 1.2 W 24 46 13 25 - - 3.4
17/04:01pm 0.4 -7.2 -2.3 82 1.1 W 28 54 15 29 - - 3.4
17/04:00pm 0.4 -6.9 -2.5 81 1.1 WNW 26 48 14 26 - - 3.4
17/03:42pm 0.6 -7.1 -2.8 78 1.3 WNW 28 48 15 26 - - 3.4
17/03:30pm 0.6 -6.3 -2.6 79 1.3 WNW 24 44 13 24 - - 3.4
17/03:00pm 0.5 -5.6 -2.5 80 1.2 W 20 54 11 29 - - 3.2
17/02:30pm 0.4 -6.1 -2.3 82 1.1 W 22 46 12 25 - - 3.2
17/02:00pm 0.3 -5.2 -1.8 86 0.8 W 17 41 9 22 - - 2.8
17/01:31pm -0.1 -7.6 -1.4 91 0.5 W 28 65 15 35 - - 2.6
17/01:30pm 0.0 -7.1 -1.4 90 0.6 W 26 65 14 35 - - 2.6
17/01:00pm 1.1 -4.9 -1.6 82 1.1 W 20 52 11 28 - - 2.6
17/12:30pm 0.3 -4.3 -1.4 88 0.7 W 13 33 7 18 - - 1.8
17/12:00pm 0.4 -4.3 -1.8 85 0.9 W 13 35 7 19 - - 1.6
17/11:30am 0.4 -4.3 -1.5 87 0.8 W 13 33 7 18 - - 1.2
17/11:00am -0.1 -5.2 -2.2 86 0.8 W 15 28 8 15 - - 1.0
17/10:30am 0.0 -5.2 -2.4 84 0.9 W 15 35 8 19 - - 0.8
17/10:00am 0.3 -4.4 -2.1 84 0.9 W 13 26 7 14 - - 0.8
17/09:30am -0.5 -5.3 -2.4 87 0.7 W 13 24 7 13 - - 0.8
17/09:00am -0.7 -4.1 -2.3 89 0.6 WSW 6 17 3 9 - - 11.0
17/08:30am -0.8 -6.9 -3.8 80 1.1 W 19 44 10 24 - - 11.0
17/08:00am -0.6 -6.8 -3.3 82 1.0 W 20 52 11 28 - - 11.0
17/07:30am -0.5 -5.8 -3.2 82 1.0 W 15 32 8 17 - - 11.0
17/07:00am -0.5 -5.8 -3.3 81 1.0 W 15 37 8 20 - - 11.0
17/06:30am -0.3 -6.3 -3.2 81 1.1 W 19 35 10 19 - - 11.0
17/06:00am -0.1 -5.6 -2.3 85 0.8 W 17 30 9 16 - - 11.0
17/05:30am 0.3 -5.6 -2.4 82 1.1 WSW 19 35 10 19 - - 11.0
17/05:00am 0.6 -5.3 -2.4 80 1.2 W 19 35 10 19 - - 11.0
17/04:30am 0.9 -4.1 -1.5 84 1.0 W 15 33 8 18 - - 11.0
17/04:00am 1.3 -3.3 -1.3 83 1.0 W 13 28 7 15 - - 11.0
17/03:30am 1.6 -3.8 -1.1 82 1.1 W 17 32 9 17 - - 11.0
17/03:00am 1.7 -2.4 -0.2 87 0.8 W 11 28 6 15 - - 11.0
17/02:30am 2.1 -2.7 0.2 87 0.8 W 15 32 8 17 - - 11.0
17/02:00am 2.1 -1.1 0.9 92 0.5 W 7 26 4 14 - - 11.0
17/01:30am 2.0 -1.0 1.0 93 0.4 W 6 13 3 7 - - 10.2
17/01:00am 2.1 -0.6 0.6 90 0.6 W 4 11 2 6 - - 8.6
17/12:30am 2.6 -1.6 1.6 93 0.4 WSW 13 24 7 13 - - 7.8
17/12:00am 2.7 -1.2 1.4 91 0.6 WSW 11 20 6 11 - - 7.8
 
Date/Time
EST
Tmp

°C
App
Tmp
°C
Dew
Point
°C
Rel
Hum
%
Delta-T

°C
Wind Press
QNH
hPa
Press
MSL
hPa
Rain
since
9 am
mm
Dir
 
Spd
km/h
Gust
km/h
Spd
kts
Gust
kts
16/11:30pm 2.7 -0.8 1.4 91 0.6 WSW 9 17 5 9 - - 7.8
16/11:00pm 2.7 -0.8 1.4 91 0.6 WSW 9 17 5 9 - - 7.8
16/10:30pm 2.3 -0.2 1.3 93 0.4 WSW 4 11 2 6 - - 7.8
16/10:00pm 1.9 -1.7 0.6 91 0.5 W 9 17 5 9 - - 7.6
16/09:30pm 2.2 -0.9 1.2 93 0.4 W 7 22 4 12 - - 6.0
16/09:00pm 2.6 -0.8 2.0 96 0.3 W 9 19 5 10 - - 3.8
16/08:30pm 2.7 -1.9 1.4 91 0.6 W 15 26 8 14 - - 3.2
16/08:00pm 2.6 -1.6 1.4 92 0.5 W 13 22 7 12 - - 2.4
16/07:30pm 2.5 -2.0 1.9 96 0.3 W 15 33 8 18 - - 2.0
16/07:00pm 2.7 -2.6 1.7 93 0.4 W 19 43 10 23 - - 2.0
16/06:30pm 2.5 -3.0 1.8 95 0.3 WSW 20 33 11 18 - - 2.0
16/06:00pm 2.2 -4.1 1.6 96 0.3 W 24 44 13 24 - - 2.0
16/05:40pm 2.9 -4.1 1.9 93 0.4 W 28 46 15 25 - - 2.0
16/05:30pm 3.2 -2.1 1.9 91 0.6 W 19 39 10 21 - - 2.0
16/05:00pm 3.3 -2.2 1.7 89 0.7 W 20 37 11 20 - - 2.0
16/04:30pm 3.5 -0.7 1.5 87 0.9 W 13 24 7 13 - - 1.6
16/04:00pm 4.1 -0.5 1.5 83 1.1 WSW 15 33 8 18 - - 1.2
16/03:30pm 4.1 1.3 2.0 86 0.9 W 6 20 3 11 - - 1.2
16/03:00pm 3.8 0.0 1.8 87 0.9 W 11 33 6 18 - - 1.2
16/02:30pm 3.8 0.4 1.8 87 0.9 W 9 30 5 16 - - 1.2
16/02:00pm 4.5 0.8 2.4 86 0.9 W 11 30 6 16 - - 1.0
16/01:30pm 3.9 1.2 2.6 91 0.6 W 6 15 3 8 - - 1.0
16/01:00pm 3.5 -0.7 1.4 86 0.9 WNW 13 30 7 16 - - 0.6
16/12:30pm 4.3 0.5 1.7 83 1.2 W 11 24 6 13 - - 0.0
16/12:00pm 4.4 0.2 1.6 82 1.2 W 13 28 7 15 - - 0.0
16/11:30am 4.6 1.6 2.1 84 1.1 W 7 20 4 11 - - 0.0
16/11:00am 5.2 1.4 1.7 78 1.6 W 11 22 6 12 - - 0.0
16/10:30am 5.8 2.7 1.3 73 2.0 W 7 19 4 10 - - 0.0
16/10:00am 6.8 4.5 2.7 75 1.9 W 4 9 2 5 - - 0.0
16/09:30am 6.3 4.1 1.2 70 2.3 NNW 2 9 1 5 - - 0.0
16/09:00am 5.9 2.7 0.9 70 2.2 NNW 7 22 4 12 - - 2.2
16/08:30am 6.2 3.2 0.9 69 2.3 N 6 19 3 10 - - 2.2
16/08:00am 5.5 1.5 0.5 70 2.2 NNE 11 24 6 13 - - 2.2
16/07:30am 6.1 3.2 1.6 73 2.0 NE 6 11 3 6 - - 2.2
16/07:00am 2.7 0.9 0.9 88 0.8 CALM 0 4 0 2 - - 2.2
16/06:30am 2.1 0.1 0.2 87 0.8 CALM 0 0 0 0 - - 2.2
16/06:00am 2.4 0.4 0.1 85 1.0 CALM 0 2 0 1 - - 2.2
16/05:30am 3.2 0.1 0.1 80 1.3 NE 6 11 3 6 - - 2.2
16/05:00am 5.1 2.3 -0.3 68 2.3 WSW 4 19 2 10 - - 2.2
16/04:30am 4.3 0.7 0.8 78 1.5 NE 9 20 5 11 - - 2.2
16/04:00am 2.4 0.5 0.3 86 0.9 CALM 0 0 0 0 - - 2.2
16/03:30am 3.3 1.0 0.5 82 1.2 ESE 2 4 1 2 - - 2.2
16/03:00am 3.9 1.7 0.8 80 1.3 SE 2 6 1 3 - - 2.2
16/02:30am 4.9 1.7 1.0 76 1.7 NNW 7 19 4 10 - - 2.2
16/02:00am 4.7 2.5 0.8 76 1.7 WNW 2 13 1 7 - - 2.2
16/01:30am 4.5 1.8 0.5 75 1.7 W 4 9 2 5 - - 2.2
16/01:00am 5.2 2.5 0.6 72 2.0 NNW 4 24 2 13 - - 2.2
16/12:30am 4.5 1.9 0.8 77 1.6 WSW 4 7 2 4 - - 2.2
16/12:00am 4.0 2.1 0.7 79 1.4 CALM 0 6 0 3 - - 2.2
 
Date/Time
EST
Tmp

°C
App
Tmp
°C
Dew
Point
°C
Rel
Hum
%
Delta-T

°C
Wind Press
QNH
hPa
Press
MSL
hPa
Rain
since
9 am
mm
Dir
 
Spd
km/h
Gust
km/h
Spd
kts
Gust
kts
15/11:30pm 4.1 1.9 1.0 80 1.3 WNW 2 7 1 4 - - 2.2
15/11:00pm 3.9 1.4 1.3 83 1.1 W 4 11 2 6 - - 2.2
15/10:30pm 3.2 1.0 1.3 87 0.8 NNW 2 7 1 4 - - 2.2
15/10:00pm 3.0 0.9 1.4 89 0.7 NNE 2 7 1 4 - - 2.2
15/09:30pm 3.3 0.8 1.5 88 0.8 N 4 15 2 8 - - 2.2
15/09:00pm 3.6 0.7 1.6 87 0.9 W 6 17 3 9 - - 2.0
15/08:30pm 3.8 1.3 1.7 86 0.9 W 4 13 2 7 - - 1.4
15/08:00pm 3.7 1.2 1.6 86 0.9 WSW 4 13 2 7 - - 1.2
15/07:30pm 3.7 1.6 1.4 85 1.0 WSW 2 9 1 5 - - 1.2
15/07:00pm 4.2 1.7 1.6 83 1.1 W 4 13 2 7 - - 0.8
15/06:30pm 4.1 1.5 1.1 81 1.3 WSW 4 9 2 5 - - 0.6
15/06:00pm 4.7 1.7 0.8 76 1.7 NW 6 17 3 9 - - 0.6
15/05:30pm 5.5 3.2 0.5 70 2.2 NNW 2 11 1 6 - - 0.4
15/05:00pm 5.8 3.7 1.7 75 1.8 WSW 2 6 1 3 - - 0.4
15/04:30pm 6.0 2.9 1.5 73 2.0 W 7 15 4 8 - - 0.4
15/04:00pm 6.5 3.5 0.8 67 2.5 W 6 17 3 9 - - 0.4

Latest Capital City Observations: Canberra | Sydney | Melbourne | Brisbane | Adelaide | Perth | Hobart | Darwin

Other Formats:

Comma delimited format used in spreadsheet applications
http://www.bom.gov.au/fwo/IDN60903/IDN60903.94915.axf

JavaScript Object Notation format (JSON) in row-major order
http://www.bom.gov.au/fwo/IDN60903/IDN60903.94915.json